Terminal Aerodrome Forecast
Issued by NWS

Home | Current Version | Previous Version | Text Only | Print | Product List | Glossary Off
Versions: 1 2 3 4 5 6 7 8 9 10 11 12 13 14 15 16 17 18 19

000
FTUS41 KCLE 280300 AAA
TAFFDY
TAF AMD
KFDY 280338Z 2804/2824 07005KT P6SM SCT025 BKN250
      TEMPO 2804/2808 BKN025
     FM280800 05005KT P6SM SCT025 BKN250
      TEMPO 2809/2812 3SM BR
     FM281400 06005KT P6SM SCT250=

USA.gov is the U.S. government's official web portal to all federal, state and local government web resources and services.